Time;durP1;ratioP1;P1;durP2;ratioP2;P2;SDS_P1;SDS_P2;PMS_P1;PMS_P2;Temp;Humidity;BMP_temperature;BMP_pressure;BME280_temperature;BME280_humidity;BME280_pressure;Samples;Min_cycle;Max_cycle;Signal;HPM_P1;HPM_P2
2021/01/11 00:00:18;;;;;;;23.63;13.45;;;-1.90;99.90;;;;;;5044672;28;20219;-70
2021/01/11 00:02:45;;;;;;;19.38;12.63;;;-1.90;99.90;;;;;;5052827;28;20276;-72
2021/01/11 00:05:13;;;;;;;16.80;11.20;;;-2.00;54.30;;;;;;5074224;28;20232;-73
2021/01/11 00:07:42;;;;;;;15.82;10.90;;;-2.00;99.90;;;;;;5048142;28;20312;-74
2021/01/11 00:10:10;;;;;;;19.45;11.43;;;-2.10;99.90;;;;;;5042822;28;20307;-76
2021/01/11 00:12:38;;;;;;;17.20;11.05;;;-2.00;99.90;;;;;;5037638;28;20596;-73
2021/01/11 00:15:08;;;;;;;19.98;11.95;;;-2.00;99.90;;;;;;5039084;28;20240;-72
2021/01/11 00:17:36;;;;;;;17.23;10.23;;;-2.00;99.90;;;;;;5048568;28;20207;-72
2021/01/11 00:20:05;;;;;;;21.58;12.15;;;-2.00;99.90;;;;;;5047799;28;20209;-72
2021/01/11 00:22:33;;;;;;;18.20;10.90;;;-2.00;99.90;;;;;;5052563;28;20229;-70
2021/01/11 00:25:00;;;;;;;18.45;11.18;;;-1.90;99.90;;;;;;5051711;28;20267;-72
2021/01/11 00:27:27;;;;;;;14.63;10.18;;;-1.90;99.90;;;;;;5047162;28;20239;-72
2021/01/11 00:29:54;;;;;;;15.10;9.10;;;-1.90;61.90;;;;;;5057587;28;20579;-74
2021/01/11 00:32:21;;;;;;;17.23;9.82;;;-1.90;1.00;;;;;;5046989;28;20266;-74
2021/01/11 00:34:49;;;;;;;18.67;13.07;;;-1.90;82.10;;;;;;5060086;28;20249;-71
2021/01/11 00:37:18;;;;;;;21.50;11.43;;;-1.90;20.30;;;;;;5042105;28;20212;-72
2021/01/11 00:39:45;;;;;;;20.50;11.10;;;-1.90;1.00;;;;;;5052697;28;21648;-72
2021/01/11 00:42:14;;;;;;;21.45;12.00;;;-2.00;1.00;;;;;;5054076;28;20211;-75
2021/01/11 00:44:41;;;;;;;19.10;12.25;;;-2.10;1.00;;;;;;5052614;28;20325;-71
2021/01/11 00:47:09;;;;;;;14.80;9.82;;;-2.20;25.60;;;;;;5049099;28;20232;-72
2021/01/11 00:49:36;;;;;;;15.43;9.32;;;-2.20;1.00;;;;;;5060600;28;20596;-72
2021/01/11 00:52:04;;;;;;;22.73;13.27;;;-2.20;3.20;;;;;;5052491;28;20694;-71
2021/01/11 00:54:32;;;;;;;16.48;9.55;;;-2.30;1.00;;;;;;5055290;28;20237;-70
2021/01/11 00:56:59;;;;;;;17.33;10.65;;;-2.30;85.10;;;;;;5043420;28;20232;-71
2021/01/11 00:59:27;;;;;;;19.95;10.75;;;-2.20;99.90;;;;;;5047112;28;20212;-71
2021/01/11 01:01:54;;;;;;;16.92;10.70;;;-2.30;1.00;;;;;;5049060;28;20230;-71
2021/01/11 01:04:22;;;;;;;19.50;12.68;;;-2.30;1.00;;;;;;5046872;28;20240;-70
2021/01/11 01:06:49;;;;;;;18.65;11.50;;;-2.30;1.00;;;;;;5049273;28;20229;-75
2021/01/11 01:09:17;;;;;;;16.30;10.90;;;-2.40;1.00;;;;;;5035401;28;20203;-71
2021/01/11 01:11:45;;;;;;;17.27;11.32;;;-2.30;64.40;;;;;;5045871;28;20272;-71
2021/01/11 01:14:12;;;;;;;16.35;11.00;;;-2.40;1.00;;;;;;5039865;28;20281;-71
2021/01/11 01:16:39;;;;;;;15.68;11.50;;;-2.40;1.00;;;;;;5061833;28;20240;-73
2021/01/11 01:19:07;;;;;;;18.70;11.70;;;-2.40;1.00;;;;;;5044714;28;20238;-71
2021/01/11 01:21:34;;;;;;;16.30;10.90;;;-2.40;1.00;;;;;;5056363;28;20213;-72
2021/01/11 01:24:01;;;;;;;15.63;10.40;;;-2.40;1.00;;;;;;5064133;28;20805;-71
2021/01/11 01:26:29;;;;;;;18.33;11.43;;;-2.40;1.00;;;;;;5063555;28;20222;-70
2021/01/11 01:29:01;;;;;;;16.95;10.75;;;-2.40;1.00;;;;;;5053739;28;20236;-71
2021/01/11 01:31:28;;;;;;;22.65;11.57;;;-2.40;1.00;;;;;;5049669;28;20241;-72
2021/01/11 01:33:55;;;;;;;17.05;11.95;;;-2.40;1.00;;;;;;5070117;28;21018;-70
2021/01/11 01:36:22;;;;;;;18.15;11.45;;;-2.40;1.00;;;;;;5045665;28;20218;-73
2021/01/11 01:38:49;;;;;;;14.13;10.93;;;-2.40;1.00;;;;;;5049554;28;20202;-71
2021/01/11 01:41:16;;;;;;;20.25;11.30;;;-2.40;1.00;;;;;;5046667;28;20377;-72
2021/01/11 01:43:44;;;;;;;17.58;9.65;;;-2.40;1.00;;;;;;5047034;28;21034;-71
2021/01/11 01:46:18;;;;;;;15.65;10.18;;;-2.40;1.00;;;;;;5049461;28;20564;-72
2021/01/11 01:48:45;;;;;;;17.20;10.93;;;-2.40;1.00;;;;;;5056935;28;20875;-71
2021/01/11 01:51:13;;;;;;;18.77;10.20;;;-2.50;1.00;;;;;;5055869;28;20202;-75
2021/01/11 01:53:40;;;;;;;18.13;10.30;;;-2.50;1.00;;;;;;5046864;28;20253;-71
2021/01/11 01:56:07;;;;;;;16.27;10.60;;;-2.50;1.00;;;;;;5052024;28;20200;-71
2021/01/11 01:58:36;;;;;;;16.42;10.30;;;-2.50;1.00;;;;;;5049023;28;20233;-73
2021/01/11 02:01:04;;;;;;;13.98;9.80;;;-2.50;1.00;;;;;;5057691;28;20209;-73
2021/01/11 02:03:31;;;;;;;17.08;10.25;;;-2.60;99.90;;;;;;5047998;28;20725;-73
2021/01/11 02:06:00;;;;;;;14.52;9.85;;;-2.60;99.90;;;;;;5056237;28;20208;-72
2021/01/11 02:08:34;;;;;;;16.92;10.10;;;-2.60;99.90;;;;;;5030026;28;20227;-73
2021/01/11 02:11:14;;;;;;;14.73;9.63;;;-2.60;1.00;;;;;;5042572;28;20261;-72
2021/01/11 02:13:53;;;;;;;16.10;10.25;;;-2.60;99.90;;;;;;5048372;28;20240;-72
2021/01/11 02:16:28;;;;;;;17.63;10.93;;;-2.60;99.90;;;;;;5047483;28;20209;-72
2021/01/11 02:19:57;;;;;;;15.80;11.05;;;-2.70;99.90;;;;;;5043523;28;20307;-74
2021/01/11 02:22:28;;;;;;;16.23;9.85;;;-2.70;99.90;;;;;;5046091;28;20220;-75
2021/01/11 02:25:35;;;;;;;16.85;10.02;;;-2.70;1.00;;;;;;5047842;28;20238;-74
2021/01/11 02:28:12;;;;;;;13.77;9.23;;;-2.70;1.00;;;;;;5045746;28;20221;-72
2021/01/11 02:30:46;;;;;;;12.45;8.85;;;-2.70;1.00;;;;;;5051543;28;20209;-72
2021/01/11 02:33:14;;;;;;;12.77;8.40;;;-2.70;1.00;;;;;;5042331;28;20673;-74
2021/01/11 02:36:01;;;;;;;16.13;9.32;;;-2.80;1.00;;;;;;5052174;28;20202;-72
2021/01/11 02:38:29;;;;;;;13.57;8.48;;;-2.80;1.00;;;;;;5042814;28;20226;-72
2021/01/11 02:40:56;;;;;;;12.25;8.65;;;-2.80;1.00;;;;;;5049717;28;20266;-72
2021/01/11 02:43:24;;;;;;;14.85;9.95;;;-2.80;1.00;;;;;;5049970;28;20860;-72
2021/01/11 02:45:52;;;;;;;17.00;9.98;;;-2.80;99.90;;;;;;5044107;28;20210;-73
2021/01/11 02:48:24;;;;;;;14.48;10.05;;;-2.90;99.90;;;;;;5056621;28;20222;-74
2021/01/11 02:50:59;;;;;;;13.60;9.45;;;-2.90;1.00;;;;;;5048083;28;20225;-73
2021/01/11 02:53:39;;;;;;;13.52;8.85;;;-2.90;1.00;;;;;;5045577;28;20255;-72
2021/01/11 02:56:09;;;;;;;15.48;10.77;;;-2.90;1.00;;;;;;5042388;28;20660;-73
2021/01/11 02:58:50;;;;;;;17.65;10.05;;;-2.90;1.00;;;;;;5046979;28;20206;-72
2021/01/11 03:01:19;;;;;;;14.50;9.18;;;-2.80;99.90;;;;;;5052931;28;20198;-72
2021/01/11 03:03:50;;;;;;;13.88;9.70;;;-2.90;99.90;;;;;;5041061;28;20715;-73
2021/01/11 03:06:18;;;;;;;15.73;9.02;;;-3.00;1.00;;;;;;5041794;28;20696;-72
2021/01/11 03:08:45;;;;;;;18.35;9.30;;;-2.90;1.00;;;;;;5052975;28;20308;-73
2021/01/11 03:11:12;;;;;;;16.50;10.02;;;-2.90;99.90;;;;;;5056206;28;20832;-72
2021/01/11 03:13:39;;;;;;;12.55;9.70;;;-3.00;99.90;;;;;;5054429;28;20576;-72
2021/01/11 03:16:06;;;;;;;14.30;8.95;;;-3.10;99.90;;;;;;5038620;28;20206;-73
2021/01/11 03:18:34;;;;;;;13.85;9.07;;;-3.10;99.90;;;;;;5045215;28;20202;-72
2021/01/11 03:21:01;;;;;;;14.35;8.43;;;-3.10;99.90;;;;;;5045288;28;20204;-72
2021/01/11 03:23:29;;;;;;;16.20;10.93;;;-3.10;99.90;;;;;;5048774;28;20228;-72
2021/01/11 03:25:56;;;;;;;11.73;7.95;;;-3.20;99.90;;;;;;5056607;28;20204;-72
2021/01/11 03:28:23;;;;;;;18.90;9.05;;;-3.10;99.90;;;;;;5043707;28;20232;-71
2021/01/11 03:30:50;;;;;;;14.95;9.30;;;-3.10;1.00;;;;;;5056630;28;20212;-76
2021/01/11 03:33:17;;;;;;;16.48;10.40;;;-3.10;99.90;;;;;;5054824;28;20221;-75
2021/01/11 03:35:45;;;;;;;18.08;9.57;;;-3.10;1.00;;;;;;5046492;28;20206;-75
2021/01/11 03:38:12;;;;;;;14.05;9.40;;;-3.10;1.00;;;;;;5038930;28;21785;-74
2021/01/11 03:40:40;;;;;;;16.10;8.95;;;-3.10;99.90;;;;;;5046940;28;20717;-75
2021/01/11 03:43:07;;;;;;;14.45;8.55;;;-3.20;99.90;;;;;;5050373;28;20899;-75
2021/01/11 03:45:34;;;;;;;13.73;8.68;;;-3.20;99.90;;;;;;5054071;28;20209;-76
2021/01/11 03:48:01;;;;;;;16.27;9.20;;;-3.20;99.90;;;;;;5047639;28;20233;-74
2021/01/11 03:50:28;;;;;;;15.90;10.20;;;-3.30;99.90;;;;;;5056407;28;20242;-75
2021/01/11 03:52:56;;;;;;;13.45;8.85;;;-3.30;1.00;;;;;;5045792;28;20209;-74
2021/01/11 03:55:23;;;;;;;13.93;8.90;;;-3.20;1.00;;;;;;5046142;28;20201;-74
2021/01/11 03:57:50;;;;;;;14.35;8.20;;;-3.10;99.90;;;;;;5053903;28;20673;-76
2021/01/11 04:00:19;;;;;;;16.20;9.27;;;-3.10;99.90;;;;;;5049139;28;20206;-74
2021/01/11 04:02:46;;;;;;;16.65;9.60;;;-3.10;99.90;;;;;;5061943;28;20274;-73
2021/01/11 04:05:13;;;;;;;15.15;9.43;;;-3.10;99.90;;;;;;5053886;28;20229;-74
2021/01/11 04:07:40;;;;;;;14.63;8.85;;;-3.10;99.90;;;;;;5042499;28;20842;-75
2021/01/11 04:10:11;;;;;;;15.65;9.65;;;-3.20;99.90;;;;;;5057867;28;20565;-76
2021/01/11 04:12:38;;;;;;;12.07;8.88;;;-3.20;99.90;;;;;;5057028;28;20211;-74
2021/01/11 04:15:06;;;;;;;15.43;8.90;;;-3.20;99.90;;;;;;5046984;28;20268;-74
2021/01/11 04:17:33;;;;;;;10.77;8.65;;;-3.20;99.90;;;;;;5052281;28;20506;-73
2021/01/11 04:20:00;;;;;;;13.38;7.97;;;-3.20;99.90;;;;;;5048433;28;20294;-73
2021/01/11 04:22:28;;;;;;;13.75;8.57;;;-3.30;99.90;;;;;;5049363;28;20202;-73
2021/01/11 04:24:55;;;;;;;15.88;8.88;;;-3.30;99.90;;;;;;5058406;28;21173;-73
2021/01/11 04:27:24;;;;;;;16.38;10.02;;;-3.30;99.90;;;;;;5042059;28;20205;-73
2021/01/11 04:29:51;;;;;;;17.50;10.77;;;-3.30;99.90;;;;;;5047382;28;20901;-73
2021/01/11 04:32:18;;;;;;;14.90;9.18;;;-3.30;99.90;;;;;;5054891;28;20221;-74
2021/01/11 04:34:45;;;;;;;16.35;9.20;;;-3.40;99.90;;;;;;5052353;28;20228;-73
2021/01/11 04:37:12;;;;;;;13.70;9.77;;;-3.50;99.90;;;;;;5048364;28;20202;-74
2021/01/11 04:39:40;;;;;;;17.10;10.20;;;-3.50;99.90;;;;;;5045060;28;20827;-74
2021/01/11 04:42:11;;;;;;;16.77;9.15;;;-3.50;99.40;;;;;;5050579;28;20234;-73
2021/01/11 04:44:39;;;;;;;22.98;9.32;;;-3.50;99.90;;;;;;5037424;28;20224;-74
2021/01/11 04:47:06;;;;;;;12.93;8.35;;;-3.60;99.90;;;;;;5055474;28;20207;-73
2021/01/11 04:49:34;;;;;;;15.88;10.15;;;-3.60;99.90;;;;;;5051712;28;20241;-74
2021/01/11 04:52:02;;;;;;;13.60;9.38;;;-3.60;99.90;;;;;;5055336;28;20243;-72
2021/01/11 04:54:31;;;;;;;13.45;8.55;;;-3.50;99.90;;;;;;5049635;28;20231;-72
2021/01/11 04:57:01;;;;;;;12.48;7.63;;;-3.50;99.90;;;;;;5050477;28;20905;-72
2021/01/11 04:59:32;;;;;;;13.40;9.43;;;-3.50;99.90;;;;;;5054396;28;20307;-72
2021/01/11 05:02:01;;;;;;;12.70;8.63;;;-3.50;99.90;;;;;;5049664;28;20232;-75
2021/01/11 05:04:28;;;;;;;14.32;9.02;;;-3.50;99.90;;;;;;5061024;28;20305;-72
2021/01/11 05:07:03;;;;;;;13.80;8.35;;;-3.50;99.90;;;;;;5052630;28;20204;-72
2021/01/11 05:09:30;;;;;;;13.07;8.07;;;-3.60;99.90;;;;;;5050529;28;20217;-72
2021/01/11 05:11:58;;;;;;;14.00;8.48;;;-3.60;99.90;;;;;;5039553;28;20211;-72
2021/01/11 05:14:25;;;;;;;13.10;8.65;;;-3.60;99.90;;;;;;5046847;28;20449;-72
2021/01/11 05:17:04;;;;;;;12.55;8.50;;;-3.60;99.90;;;;;;5055237;28;20208;-72
2021/01/11 05:19:32;;;;;;;22.60;10.02;;;-3.70;99.90;;;;;;5043034;28;20652;-74
2021/01/11 05:22:00;;;;;;;14.15;9.90;;;-3.60;99.90;;;;;;5050502;28;20220;-73
2021/01/11 05:24:35;;;;;;;13.25;8.65;;;-3.90;99.90;;;;;;5053793;28;20267;-73
2021/01/11 05:27:04;;;;;;;13.00;8.40;;;-3.90;99.90;;;;;;5049641;28;20215;-73
2021/01/11 05:29:32;;;;;;;13.65;9.27;;;-3.80;1.00;;;;;;5051690;28;20312;-72
2021/01/11 05:32:00;;;;;;;18.45;11.35;;;-3.70;1.00;;;;;;5055644;28;20534;-72
2021/01/11 05:34:49;;;;;;;14.35;8.98;;;-3.60;99.90;;;;;;5051452;28;20237;-73
2021/01/11 05:37:36;;;;;;;14.57;9.02;;;-3.70;99.90;;;;;;5046024;28;20217;-73
2021/01/11 05:40:06;;;;;;;20.92;9.38;;;-3.60;99.90;;;;;;5048691;28;20204;-72
2021/01/11 05:42:33;;;;;;;14.70;10.63;;;-3.60;99.90;;;;;;5053046;28;20212;-74
2021/01/11 05:45:22;;;;;;;14.13;8.48;;;-3.60;99.90;;;;;;5036964;28;20271;-73
2021/01/11 05:48:04;;;;;;;14.70;9.15;;;-3.70;87.00;;;;;;5043839;28;20217;-73
2021/01/11 05:50:35;;;;;;;14.88;9.80;;;-3.80;99.90;;;;;;5045537;28;20622;-73
2021/01/11 05:53:14;;;;;;;13.95;9.35;;;-3.80;99.90;;;;;;5038711;28;20204;-74
2021/01/11 05:55:42;;;;;;;13.23;8.88;;;-3.70;99.90;;;;;;5040935;28;20226;-75
2021/01/11 05:58:09;;;;;;;15.02;9.05;;;-3.70;99.90;;;;;;5047393;28;20674;-73
2021/01/11 06:00:37;;;;;;;12.90;8.70;;;-3.70;99.90;;;;;;5042104;28;20230;-74
2021/01/11 06:03:06;;;;;;;18.13;9.88;;;-3.70;99.90;;;;;;5048213;28;20223;-73
2021/01/11 06:05:35;;;;;;;15.25;10.52;;;-3.70;99.90;;;;;;5045324;28;20223;-72
2021/01/11 06:08:05;;;;;;;15.05;9.43;;;-3.70;99.90;;;;;;5046972;28;20260;-73
2021/01/11 06:10:32;;;;;;;15.02;8.75;;;-3.80;82.10;;;;;;5057824;28;20707;-72
2021/01/11 06:12:59;;;;;;;17.48;9.35;;;-3.90;43.20;;;;;;5042501;28;20208;-73
2021/01/11 06:15:28;;;;;;;16.25;12.00;;;-3.90;99.90;;;;;;5037512;28;20493;-76
2021/01/11 06:17:58;;;;;;;18.50;12.10;;;-3.90;99.90;;;;;;5047064;28;20478;-73
2021/01/11 06:20:29;;;;;;;14.88;10.57;;;-3.90;99.90;;;;;;5041149;28;20243;-73
2021/01/11 06:23:27;;;;;;;12.00;9.63;;;-3.90;98.30;;;;;;5044534;28;20423;-72
2021/01/11 06:25:56;;;;;;;17.25;10.00;;;-3.90;99.90;;;;;;5040946;28;20222;-75
2021/01/11 06:28:31;;;;;;;13.57;9.43;;;-3.90;99.90;;;;;;5041064;28;20225;-75
2021/01/11 06:31:12;;;;;;;15.52;9.80;;;-3.90;99.90;;;;;;5045790;28;20211;-73
2021/01/11 06:33:40;;;;;;;17.80;11.40;;;-3.90;99.90;;;;;;5043165;28;20588;-72
2021/01/11 06:36:25;;;;;;;12.90;9.15;;;-3.90;99.90;;;;;;5038939;28;20660;-72
2021/01/11 06:38:54;;;;;;;25.20;13.88;;;-3.90;99.90;;;;;;5031322;28;20212;-73
2021/01/11 06:41:22;;;;;;;25.20;16.25;;;-3.80;99.90;;;;;;5027634;28;20474;-74
2021/01/11 06:43:51;;;;;;;20.30;12.38;;;-3.90;99.90;;;;;;5031272;28;20237;-71
2021/01/11 06:46:42;;;;;;;21.00;12.35;;;-3.80;1.00;;;;;;5034212;28;20201;-71
2021/01/11 06:49:23;;;;;;;15.70;10.10;;;-3.70;99.90;;;;;;5051126;28;20356;-73
2021/01/11 06:52:03;;;;;;;16.48;10.05;;;-3.80;99.90;;;;;;5043709;28;20290;-72
2021/01/11 06:54:43;;;;;;;15.55;10.02;;;-3.80;99.90;;;;;;5051568;28;20965;-74
2021/01/11 06:57:13;;;;;;;17.80;10.63;;;-3.80;99.90;;;;;;5034072;28;20547;-75
2021/01/11 06:59:41;;;;;;;17.50;10.27;;;-3.80;99.90;;;;;;5026699;28;20290;-74
2021/01/11 07:02:19;;;;;;;18.20;12.00;;;-3.80;99.90;;;;;;5031623;28;21375;-73
2021/01/11 07:04:47;;;;;;;18.70;11.23;;;-3.80;99.90;;;;;;5044299;28;20247;-73
2021/01/11 07:07:25;;;;;;;16.17;11.05;;;-3.80;99.90;;;;;;5041663;28;20218;-73
2021/01/11 07:09:58;;;;;;;19.02;9.80;;;-3.80;99.90;;;;;;5033184;28;20232;-73
2021/01/11 07:12:26;;;;;;;18.25;10.90;;;-3.80;99.90;;;;;;5045683;28;20270;-73
2021/01/11 07:15:00;;;;;;;15.38;9.25;;;-3.80;99.90;;;;;;5044135;28;20242;-73
2021/01/11 07:17:35;;;;;;;17.10;9.65;;;-3.80;99.90;;;;;;5043992;28;20207;-74
2021/01/11 07:20:04;;;;;;;19.17;10.88;;;-3.80;99.90;;;;;;5040343;28;20218;-74
2021/01/11 07:22:32;;;;;;;14.07;9.20;;;-3.90;34.10;;;;;;5041854;28;20227;-71
2021/01/11 07:25:08;;;;;;;26.50;16.17;;;-3.90;55.30;;;;;;5048651;28;20223;-72
2021/01/11 07:27:35;;;;;;;16.92;10.95;;;-3.90;99.90;;;;;;5030059;28;21014;-72
2021/01/11 07:30:03;;;;;;;15.02;11.35;;;-3.90;99.90;;;;;;5034080;28;20277;-73
2021/01/11 07:32:32;;;;;;;18.48;11.32;;;-3.80;99.90;;;;;;5052301;28;20227;-73
2021/01/11 07:35:00;;;;;;;15.27;10.63;;;-3.70;99.90;;;;;;5038672;28;20328;-72
2021/01/11 07:37:27;;;;;;;17.95;12.25;;;-3.70;1.00;;;;;;5045024;28;20213;-73
2021/01/11 07:39:55;;;;;;;18.25;11.20;;;-3.50;1.00;;;;;;5045164;28;20215;-72
2021/01/11 07:42:23;;;;;;;16.60;11.68;;;-3.50;1.00;;;;;;5051071;28;20206;-72
2021/01/11 07:44:50;;;;;;;14.48;9.90;;;-3.40;1.00;;;;;;5041472;28;20298;-72
2021/01/11 07:47:17;;;;;;;14.65;10.77;;;-3.40;99.90;;;;;;5031564;28;20239;-73
2021/01/11 07:49:50;;;;;;;15.30;10.02;;;-3.50;99.90;;;;;;5036222;28;20224;-73
2021/01/11 07:52:18;;;;;;;17.98;12.07;;;-3.40;99.90;;;;;;5039951;28;20208;-78
2021/01/11 07:54:46;;;;;;;19.38;12.13;;;-3.40;99.90;;;;;;5052776;28;20239;-73
2021/01/11 07:57:14;;;;;;;15.43;10.70;;;-3.50;99.90;;;;;;5045954;28;20211;-73
2021/01/11 07:59:44;;;;;;;15.48;10.65;;;-3.60;99.90;;;;;;5046613;28;20219;-73
2021/01/11 08:02:13;;;;;;;18.05;13.43;;;-3.60;99.90;;;;;;5047357;28;20498;-77
2021/01/11 08:04:41;;;;;;;17.35;12.05;;;-3.50;1.00;;;;;;5055704;28;20486;-75
2021/01/11 08:07:10;;;;;;;18.27;13.95;;;-3.50;1.00;;;;;;5048021;28;20214;-75
2021/01/11 08:09:38;;;;;;;14.25;10.75;;;-3.40;1.00;;;;;;5050220;28;20290;-74
2021/01/11 08:12:10;;;;;;;14.38;9.63;;;-3.20;99.90;;;;;;5049068;28;20575;-74
2021/01/11 08:14:39;;;;;;;16.67;10.75;;;-2.80;1.00;;;;;;5044999;28;20239;-73
2021/01/11 08:17:13;;;;;;;14.02;9.57;;;-2.30;1.00;;;;;;5052321;28;20209;-75
2021/01/11 08:19:41;;;;;;;16.80;9.88;;;-1.80;1.00;;;;;;5050039;28;20211;-75
2021/01/11 08:22:10;;;;;;;16.05;8.50;;;-1.10;99.90;;;;;;5049948;28;20207;-74
2021/01/11 08:24:38;;;;;;;20.30;11.25;;;-1.00;1.00;;;;;;5052224;28;20231;-73
2021/01/11 08:27:07;;;;;;;22.15;15.43;;;-0.50;1.00;;;;;;5050873;28;20224;-73
2021/01/11 08:29:37;;;;;;;16.05;11.75;;;-0.10;1.00;;;;;;5054537;28;20611;-74
2021/01/11 08:32:09;;;;;;;15.77;9.80;;;0.10;99.90;;;;;;5060658;28;20209;-76
2021/01/11 08:34:36;;;;;;;15.95;10.55;;;0.50;99.90;;;;;;5061953;28;20232;-75
2021/01/11 08:37:19;;;;;;;12.63;9.82;;;1.10;99.90;;;;;;5055164;28;20471;-74
2021/01/11 08:39:54;;;;;;;15.77;9.70;;;1.70;99.90;;;;;;5052866;28;20218;-74
2021/01/11 08:42:22;;;;;;;11.73;9.88;;;1.90;99.90;;;;;;5047197;28;20297;-77
2021/01/11 08:44:50;;;;;;;15.02;10.25;;;1.80;99.90;;;;;;5056950;28;20226;-73
2021/01/11 08:47:26;;;;;;;14.32;10.35;;;2.30;99.90;;;;;;5038037;28;20221;-70
2021/01/11 08:49:58;;;;;;;12.60;9.25;;;2.30;99.90;;;;;;5057334;28;20259;-70
2021/01/11 08:52:30;;;;;;;12.82;10.23;;;3.10;99.90;;;;;;5058469;28;20236;-70
2021/01/11 08:55:08;;;;;;;15.65;11.57;;;2.70;99.90;;;;;;5062343;28;20242;-70
2021/01/11 08:57:35;;;;;;;11.30;8.68;;;1.80;99.90;;;;;;5045874;28;20222;-69
2021/01/11 09:00:09;;;;;;;13.93;8.70;;;0.60;99.90;;;;;;5050125;28;20236;-69
2021/01/11 09:02:45;;;;;;;13.57;10.05;;;0.80;99.90;;;;;;5051318;28;20215;-70
2021/01/11 09:05:17;;;;;;;14.82;8.88;;;0.60;99.90;;;;;;5052008;28;20319;-70
2021/01/11 09:07:45;;;;;;;14.40;9.63;;;0.10;99.90;;;;;;5048162;28;20242;-69
2021/01/11 09:10:30;;;;;;;12.48;8.20;;;-0.50;99.90;;;;;;5057301;28;20744;-71
2021/01/11 09:13:16;;;;;;;13.88;8.88;;;-0.40;99.90;;;;;;5036704;28;20215;-70
2021/01/11 09:15:43;;;;;;;14.00;9.15;;;-0.20;99.90;;;;;;5050161;28;20214;-69
2021/01/11 09:18:12;;;;;;;12.50;8.82;;;-0.70;99.90;;;;;;5049162;28;20217;-70
2021/01/11 09:20:41;;;;;;;14.13;11.00;;;-0.90;1.00;;;;;;5043969;28;20996;-67
2021/01/11 09:23:08;;;;;;;14.75;9.45;;;-0.60;1.00;;;;;;5045590;28;21594;-70
2021/01/11 09:25:36;;;;;;;14.35;10.30;;;-0.80;1.00;;;;;;5040827;28;20277;-68
2021/01/11 09:28:05;;;;;;;13.52;9.85;;;-0.90;1.00;;;;;;5047768;28;20912;-68
2021/01/11 09:30:33;;;;;;;14.32;9.70;;;-0.80;1.00;;;;;;5046660;28;20240;-70
2021/01/11 09:33:00;;;;;;;13.43;9.38;;;-0.70;1.00;;;;;;5051158;28;20227;-69
2021/01/11 09:35:28;;;;;;;13.55;9.93;;;-0.40;1.00;;;;;;5046297;28;20209;-68
2021/01/11 09:37:56;;;;;;;15.02;9.70;;;-0.10;1.00;;;;;;5047131;28;20480;-69
2021/01/11 09:40:25;;;;;;;12.10;10.10;;;0.10;1.00;;;;;;5047276;28;20668;-70
2021/01/11 09:42:53;;;;;;;11.98;8.75;;;0.10;99.90;;;;;;5046647;28;20213;-69
2021/01/11 09:45:20;;;;;;;11.77;8.07;;;0.00;99.90;;;;;;5050191;28;20229;-69
2021/01/11 09:47:47;;;;;;;12.05;7.50;;;-0.40;99.90;;;;;;5045949;28;20204;-73
2021/01/11 09:50:17;;;;;;;12.68;9.02;;;-0.50;99.90;;;;;;5047494;28;20240;-69
2021/01/11 09:52:45;;;;;;;13.48;8.82;;;-0.70;1.00;;;;;;5052363;28;20211;-68
2021/01/11 09:55:14;;;;;;;14.02;8.73;;;-0.90;1.00;;;;;;5048767;28;20239;-69
2021/01/11 09:57:41;;;;;;;14.85;9.57;;;-0.80;1.00;;;;;;5048724;28;20484;-70
2021/01/11 10:00:11;;;;;;;15.13;9.75;;;-0.70;1.00;;;;;;5046792;28;20696;-69
2021/01/11 10:02:39;;;;;;;12.10;8.43;;;-0.70;1.00;;;;;;5051250;28;20209;-70
2021/01/11 10:05:06;;;;;;;16.58;9.85;;;-0.60;1.00;;;;;;5043610;28;20255;-69
2021/01/11 10:07:34;;;;;;;11.48;9.63;;;-0.40;1.00;;;;;;5050228;28;20228;-71
2021/01/11 10:10:02;;;;;;;12.93;8.88;;;0.00;1.00;;;;;;5056799;28;20243;-70
2021/01/11 10:12:29;;;;;;;15.27;9.68;;;0.20;99.90;;;;;;5055334;28;20220;-70
2021/01/11 10:14:56;;;;;;;15.10;9.93;;;0.70;99.90;;;;;;5049033;28;20229;-71
2021/01/11 10:17:24;;;;;;;11.65;8.98;;;1.70;99.90;;;;;;5046857;28;20219;-69
2021/01/11 10:19:51;;;;;;;12.60;9.15;;;3.00;99.90;;;;;;5052463;28;20218;-69
2021/01/11 10:22:19;;;;;;;10.88;8.48;;;3.50;99.90;;;;;;5048501;28;20306;-73
2021/01/11 10:24:50;;;;;;;11.40;7.93;;;4.80;99.90;;;;;;5049284;28;20437;-72
2021/01/11 10:27:18;;;;;;;10.82;9.07;;;4.50;99.90;;;;;;5049027;28;20574;-71
2021/01/11 10:29:45;;;;;;;12.43;8.33;;;3.80;99.90;;;;;;5051311;28;20226;-71
2021/01/11 10:32:13;;;;;;;11.97;9.50;;;2.70;99.90;;;;;;5046932;28;20468;-71
2021/01/11 10:34:40;;;;;;;13.07;9.10;;;2.10;99.90;;;;;;5046132;28;20511;-73
2021/01/11 10:37:08;;;;;;;11.27;8.73;;;1.90;99.90;;;;;;5053839;28;20460;-70
2021/01/11 10:39:35;;;;;;;11.53;8.30;;;2.10;99.90;;;;;;5049701;28;20462;-71
2021/01/11 10:42:03;;;;;;;10.80;8.77;;;2.10;99.90;;;;;;5048785;28;20487;-71
2021/01/11 10:44:31;;;;;;;12.57;9.10;;;2.40;99.90;;;;;;5053465;28;20239;-73
2021/01/11 10:47:00;;;;;;;14.27;9.80;;;2.90;99.90;;;;;;5060700;28;20473;-71
2021/01/11 10:49:28;;;;;;;11.38;9.13;;;2.30;99.90;;;;;;5039206;28;20229;-69
2021/01/11 10:51:56;;;;;;;13.07;9.15;;;3.10;99.90;;;;;;5044306;28;20947;-70
2021/01/11 10:54:23;;;;;;;14.75;9.20;;;4.10;99.90;;;;;;5035453;28;20625;-71
2021/01/11 10:56:51;;;;;;;10.93;8.35;;;5.40;99.90;;;;;;5045924;28;20644;-70
2021/01/11 10:59:19;;;;;;;10.50;8.60;;;5.80;99.90;;;;;;5048366;28;20225;-70
2021/01/11 11:01:49;;;;;;;13.45;11.18;;;6.80;99.90;;;;;;5048252;28;21186;-71
2021/01/11 11:04:16;;;;;;;11.60;8.53;;;7.20;99.90;;;;;;5049637;28;20591;-72
2021/01/11 11:06:43;;;;;;;12.70;9.20;;;7.00;99.90;;;;;;5046359;28;20463;-71
2021/01/11 11:09:10;;;;;;;10.33;8.30;;;7.10;99.90;;;;;;5042147;28;21073;-72
2021/01/11 11:11:38;;;;;;;13.63;9.90;;;7.90;99.90;;;;;;5051446;28;20479;-72
2021/01/11 11:14:05;;;;;;;8.57;7.63;;;7.80;99.90;;;;;;5050747;28;20483;-71
2021/01/11 11:16:32;;;;;;;11.73;8.63;;;7.90;99.90;;;;;;5056571;28;20494;-72
2021/01/11 11:19:00;;;;;;;11.87;9.53;;;8.20;99.90;;;;;;5049060;28;20462;-70
2021/01/11 11:21:28;;;;;;;10.97;9.77;;;7.40;99.30;;;;;;5050971;28;20468;-71
2021/01/11 11:24:15;;;;;;;10.77;9.17;;;6.30;94.60;;;;;;5055127;28;20478;-71
2021/01/11 11:26:42;;;;;;;9.60;8.63;;;4.70;83.90;;;;;;5050892;28;20991;-71
2021/01/11 11:29:09;;;;;;;8.97;7.37;;;4.80;94.00;;;;;;5062492;28;20581;-72
2021/01/11 11:31:38;;;;;;;8.10;6.90;;;3.50;79.60;;;;;;5050411;28;20473;-71
2021/01/11 11:34:07;;;;;;;7.70;6.70;;;2.80;90.20;;;;;;5046502;28;20488;-71
2021/01/11 11:36:35;;;;;;;8.73;6.13;;;2.60;93.80;;;;;;5041463;28;20207;-70
2021/01/11 11:39:03;;;;;;;9.60;8.23;;;3.00;99.90;;;;;;5044013;28;20483;-72
2021/01/11 11:41:30;;;;;;;9.27;6.65;;;2.70;99.90;;;;;;5041774;28;20743;-73
2021/01/11 11:43:57;;;;;;;10.23;7.97;;;2.50;99.90;;;;;;5040847;28;20594;-73
2021/01/11 11:46:24;;;;;;;11.27;8.20;;;3.00;99.90;;;;;;5041815;28;20498;-74
2021/01/11 11:48:56;;;;;;;10.55;8.50;;;3.30;99.90;;;;;;5036284;28;20454;-73
2021/01/11 11:51:27;;;;;;;9.60;8.25;;;4.00;99.90;;;;;;5039762;28;20219;-73
2021/01/11 11:53:55;;;;;;;8.87;7.60;;;4.30;99.90;;;;;;5038219;28;20282;-72
2021/01/11 11:56:23;;;;;;;8.53;6.63;;;4.20;99.90;;;;;;5036478;28;21129;-72
2021/01/11 11:58:50;;;;;;;6.53;5.47;;;4.10;99.90;;;;;;5055499;28;20458;-73
2021/01/11 12:01:17;;;;;;;12.35;8.30;;;3.80;99.90;;;;;;5045075;28;20211;-72
2021/01/11 12:03:44;;;;;;;9.07;8.02;;;4.40;99.90;;;;;;5045035;28;20271;-72
2021/01/11 12:06:12;;;;;;;10.90;8.25;;;5.00;99.90;;;;;;5044952;28;20259;-74
2021/01/11 12:08:40;;;;;;;11.90;9.13;;;5.50;99.90;;;;;;5039434;28;20216;-73
2021/01/11 12:11:07;;;;;;;12.57;8.63;;;5.70;99.90;;;;;;5040306;28;20561;-73
2021/01/11 12:13:35;;;;;;;12.37;7.93;;;6.00;99.90;;;;;;5038998;28;20486;-72
2021/01/11 12:16:02;;;;;;;9.50;7.47;;;6.20;99.90;;;;;;5038193;28;21182;-72
2021/01/11 12:18:30;;;;;;;11.50;9.23;;;6.50;99.90;;;;;;5050570;28;20992;-72
2021/01/11 12:20:57;;;;;;;9.57;8.10;;;6.70;99.90;;;;;;5042943;28;20956;-71
2021/01/11 12:23:24;;;;;;;11.10;8.43;;;6.70;99.90;;;;;;5051758;28;20509;-70
2021/01/11 12:25:52;;;;;;;9.40;7.83;;;6.80;99.90;;;;;;5045462;28;20747;-70
2021/01/11 12:28:19;;;;;;;11.00;8.50;;;6.80;99.90;;;;;;5045475;28;20468;-72
2021/01/11 12:30:46;;;;;;;11.17;7.40;;;6.30;99.90;;;;;;5045788;28;20833;-72
2021/01/11 12:33:13;;;;;;;10.85;9.75;;;6.00;97.10;;;;;;5046374;28;20452;-71
2021/01/11 12:35:41;;;;;;;10.67;7.83;;;6.50;99.90;;;;;;5039967;28;20199;-73
2021/01/11 12:38:08;;;;;;;11.07;7.90;;;6.60;99.90;;;;;;5038368;28;20463;-72
2021/01/11 12:40:35;;;;;;;10.63;7.60;;;6.20;94.70;;;;;;5043654;28;20468;-73
2021/01/11 12:43:03;;;;;;;9.60;8.00;;;5.70;94.40;;;;;;5049276;28;20512;-71
2021/01/11 12:45:30;;;;;;;9.87;7.90;;;5.90;94.50;;;;;;5041674;28;20455;-73
2021/01/11 12:47:57;;;;;;;7.30;6.60;;;5.90;94.50;;;;;;5047804;28;20527;-74
2021/01/11 12:50:24;;;;;;;10.53;7.50;;;5.50;94.30;;;;;;5045877;28;20480;-72